Time,TemperatureF,DewpointF,PressureIn,WindDirection,WindDirectionDegrees,WindSpeedMPH,WindSpeedGustMPH,Humidity,HourlyPrecipIn,Conditions,Clouds,dailyrainin,SoftwareType,DateUTC
2013-07-16 00:01:00,79.7,73.7,30.11,South,183,0.0,1.0,82,0.00,,,0.05,Wunderground v.1.15,2013-07-16 04:01:00,
2013-07-16 00:02:00,79.7,73.7,30.11,SSW,198,0.0,1.0,82,0.00,,,0.05,Wunderground v.1.15,2013-07-16 04:02:00,
2013-07-16 00:03:00,79.7,73.7,30.11,WNW,292,1.0,1.0,82,0.00,,,0.05,Wunderground v.1.15,2013-07-16 04:03:00,
2013-07-16 00:06:00,79.7,73.3,30.10,SSW,202,1.0,3.0,81,0.00,,,0.05,Wunderground v.1.15,2013-07-16 04:06:00,
2013-07-16 00:11:00,79.8,73.4,30.10,SE,139,4.0,4.0,81,0.00,,,0.05,Wunderground v.1.15,2013-07-16 04:11:00,
2013-07-16 00:17:00,79.9,72.8,30.10,ESE,121,0.0,5.0,79,0.00,,,0.05,Wunderground v.1.15,2013-07-16 04:17:00,
2013-07-16 00:22:00,79.9,72.8,30.10,SSE,148,3.0,3.0,79,0.00,,,0.05,Wunderground v.1.15,2013-07-16 04:22:00,
2013-07-16 00:28:00,79.9,73.2,30.10,South,190,3.0,3.0,80,0.00,,,0.05,Wunderground v.1.15,2013-07-16 04:28:00,
2013-07-16 00:33:00,79.9,73.2,30.10,SSE,148,1.0,2.0,80,0.00,,,0.05,Wunderground v.1.15,2013-07-16 04:33:00,
2013-07-16 00:39:00,79.8,73.1,30.10,SE,128,0.0,2.0,80,0.00,,,0.00,Wunderground v.1.15,2013-07-16 04:39:00,
2013-07-16 00:44:00,79.6,72.9,30.10,South,176,0.0,1.0,80,0.00,,,0.00,Wunderground v.1.15,2013-07-16 04:44:00,
2013-07-16 00:50:00,79.6,73.3,30.10,SE,135,0.0,0.0,81,0.00,,,0.00,Wunderground v.1.15,2013-07-16 04:50:00,
2013-07-16 00:56:00,79.5,72.8,30.10,SE,127,0.0,2.0,80,0.00,,,0.00,Wunderground v.1.15,2013-07-16 04:56:00,
2013-07-16 01:01:00,79.3,73.0,30.10,SSE,165,1.0,1.0,81,0.00,,,0.00,Wunderground v.1.15,2013-07-16 05:01:00,
2013-07-16 01:07:00,79.3,73.3,30.10,SSE,149,0.0,1.0,82,0.00,,,0.00,Wunderground v.1.15,2013-07-16 05:07:00,
2013-07-16 01:13:00,79.1,73.1,30.10,SSE,148,0.0,0.0,82,0.00,,,0.00,Wunderground v.1.15,2013-07-16 05:13:00,
2013-07-16 01:18:00,78.9,72.9,30.10,South,182,0.0,0.0,82,0.00,,,0.00,Wunderground v.1.15,2013-07-16 05:18:00,
2013-07-16 01:24:00,78.7,73.1,30.10,SE,134,0.0,0.0,83,0.00,,,0.00,Wunderground v.1.15,2013-07-16 05:24:00,
2013-07-16 01:29:00,78.6,72.6,30.10,SSE,159,0.0,0.0,82,0.00,,,0.00,Wunderground v.1.15,2013-07-16 05:29:00,
2013-07-16 01:35:00,78.7,72.7,30.09,SSE,157,0.0,1.0,82,0.00,,,0.00,Wunderground v.1.15,2013-07-16 05:35:00,
2013-07-16 01:40:00,78.7,72.7,30.09,SSE,153,1.0,1.0,82,0.00,,,0.00,Wunderground v.1.15,2013-07-16 05:40:00,
2013-07-16 01:46:00,78.7,72.7,30.09,South,188,0.0,1.0,82,0.00,,,0.00,Wunderground v.1.15,2013-07-16 05:46:00,
2013-07-16 01:52:00,78.5,72.5,30.08,South,188,0.0,0.0,82,0.00,,,0.00,Wunderground v.1.15,2013-07-16 05:52:00,
2013-07-16 01:58:00,78.3,72.7,30.08,East,101,2.0,2.0,83,0.00,,,0.00,Wunderground v.1.15,2013-07-16 05:58:00,
2013-07-16 02:03:00,78.4,73.2,30.08,SSE,149,0.0,2.0,84,0.00,,,0.00,Wunderground v.1.15,2013-07-16 06:03:00,
2013-07-16 02:08:00,78.4,72.8,30.08,NNE,27,0.0,2.0,83,0.00,,,0.00,Wunderground v.1.15,2013-07-16 06:08:00,
2013-07-16 02:13:00,78.4,72.8,30.08,ENE,61,1.0,2.0,83,0.00,,,0.00,Wunderground v.1.15,2013-07-16 06:13:00,
2013-07-16 02:18:00,78.3,73.4,30.08,SSE,149,0.0,5.0,85,0.20,,,0.03,Wunderground v.1.15,2013-07-16 06:18:00,
2013-07-16 02:23:00,77.8,73.3,30.08,SSE,160,0.0,1.0,86,0.07,,,0.03,Wunderground v.1.15,2013-07-16 06:23:00,
2013-07-16 02:28:00,77.5,73.3,30.08,SSE,161,0.0,1.0,87,0.05,,,0.03,Wunderground v.1.15,2013-07-16 06:28:00,
2013-07-16 02:33:00,77.2,73.4,30.08,SSE,152,0.0,0.0,88,0.00,,,0.03,Wunderground v.1.15,2013-07-16 06:33:00,
2013-07-16 02:38:00,76.9,73.4,30.08,ESE,113,0.0,1.0,89,0.00,,,0.03,Wunderground v.1.15,2013-07-16 06:38:00,
2013-07-16 02:43:00,76.5,73.0,30.08,ESE,113,0.0,0.0,89,0.00,,,0.03,Wunderground v.1.15,2013-07-16 06:43:00,
2013-07-16 02:48:00,76.1,72.6,30.08,ESE,113,0.0,0.0,89,0.00,,,0.03,Wunderground v.1.15,2013-07-16 06:48:00,
2013-07-16 02:54:00,75.8,72.3,30.08,ESE,113,0.0,0.0,89,0.00,,,0.03,Wunderground v.1.15,2013-07-16 06:54:00,
2013-07-16 02:59:00,75.6,72.5,30.08,ESE,113,0.0,0.0,90,0.00,,,0.03,Wunderground v.1.15,2013-07-16 06:59:00,
2013-07-16 03:04:00,75.3,72.2,30.08,ESE,113,0.0,0.0,90,0.00,,,0.03,Wunderground v.1.15,2013-07-16 07:04:00,
2013-07-16 03:09:00,75.3,72.5,30.08,SSW,211,2.0,3.0,91,0.00,,,0.03,Wunderground v.1.15,2013-07-16 07:09:00,
2013-07-16 03:14:00,75.5,72.7,30.08,SSE,165,0.0,1.0,91,0.00,,,0.03,Wunderground v.1.15,2013-07-16 07:14:00,
2013-07-16 03:19:00,75.5,72.7,30.08,SSW,194,0.0,1.0,91,0.00,,,0.03,Wunderground v.1.15,2013-07-16 07:19:00,
2013-07-16 03:24:00,75.3,72.5,30.08,SSW,194,0.0,0.0,91,0.00,,,0.03,Wunderground v.1.15,2013-07-16 07:24:00,
2013-07-16 03:29:00,75.1,72.0,30.08,SSE,160,1.0,2.0,90,0.00,,,0.03,Wunderground v.1.15,2013-07-16 07:29:00,
2013-07-16 03:34:00,75.1,72.0,30.08,SE,132,0.0,0.0,90,0.00,,,0.03,Wunderground v.1.15,2013-07-16 07:34:00,
2013-07-16 03:39:00,75.2,72.4,30.08,SSE,152,1.0,3.0,91,0.00,,,0.03,Wunderground v.1.15,2013-07-16 07:39:00,
2013-07-16 03:44:00,75.4,72.3,30.08,NNE,21,0.0,2.0,90,0.00,,,0.03,Wunderground v.1.15,2013-07-16 07:44:00,
2013-07-16 03:49:00,75.5,72.4,30.07,NNE,22,0.0,2.0,90,0.00,,,0.03,Wunderground v.1.15,2013-07-16 07:49:00,
2013-07-16 03:54:00,75.5,72.4,30.07,NNE,21,0.0,0.0,90,0.00,,,0.03,Wunderground v.1.15,2013-07-16 07:54:00,
2013-07-16 03:59:00,75.5,72.4,30.07,NNE,21,0.0,0.0,90,0.00,,,0.03,Wunderground v.1.15,2013-07-16 07:59:00,
2013-07-16 04:04:00,75.4,72.3,30.07,NNE,21,0.0,0.0,90,0.00,,,0.03,Wunderground v.1.15,2013-07-16 08:04:00,
2013-07-16 04:09:00,75.3,72.2,30.07,SSE,155,1.0,2.0,90,0.00,,,0.03,Wunderground v.1.15,2013-07-16 08:09:00,
2013-07-16 04:14:00,75.6,72.8,30.07,SE,124,0.0,2.0,91,0.21,,,0.08,Wunderground v.1.15,2013-07-16 08:14:00,
2013-07-16 04:19:00,75.7,72.9,30.07,ESE,123,0.0,2.0,91,0.08,,,0.08,Wunderground v.1.15,2013-07-16 08:19:00,
2013-07-16 04:24:00,75.6,72.8,30.07,ESE,123,0.0,3.0,91,0.05,,,0.08,Wunderground v.1.15,2013-07-16 08:24:00,
2013-07-16 04:29:00,75.5,72.7,30.07,SE,132,4.0,11.0,91,0.00,,,0.08,Wunderground v.1.15,2013-07-16 08:29:00,
2013-07-16 04:34:00,75.3,71.5,30.08,SSE,157,1.0,7.0,88,0.00,,,0.08,Wunderground v.1.15,2013-07-16 08:34:00,
2013-07-16 04:39:00,75.1,71.6,30.08,East,87,2.0,7.0,89,0.00,,,0.08,Wunderground v.1.15,2013-07-16 08:39:00,
2013-07-16 04:44:00,75.1,72.0,30.08,NW,321,0.0,2.0,90,0.00,,,0.08,Wunderground v.1.15,2013-07-16 08:44:00,
2013-07-16 04:49:00,74.9,71.8,30.07,SSE,155,0.0,2.0,90,0.00,,,0.08,Wunderground v.1.15,2013-07-16 08:49:00,
2013-07-16 04:54:00,74.8,71.7,30.07,NW,313,0.0,1.0,90,0.00,,,0.08,Wunderground v.1.15,2013-07-16 08:54:00,
2013-07-16 04:59:00,74.7,71.6,30.07,North,360,2.0,3.0,90,0.00,,,0.08,Wunderground v.1.15,2013-07-16 08:59:00,
2013-07-16 05:04:00,74.6,71.8,30.07,North,351,2.0,2.0,91,0.00,,,0.08,Wunderground v.1.15,2013-07-16 09:04:00,
2013-07-16 05:09:00,74.7,71.9,30.07,NE,35,0.0,2.0,91,0.00,,,0.08,Wunderground v.1.15,2013-07-16 09:09:00,
2013-07-16 05:14:00,74.7,72.2,30.07,NNE,30,1.0,2.0,92,0.00,,,0.08,Wunderground v.1.15,2013-07-16 09:14:00,
2013-07-16 05:19:00,74.7,72.2,30.07,NNE,25,1.0,2.0,92,0.00,,,0.08,Wunderground v.1.15,2013-07-16 09:19:00,
2013-07-16 05:24:00,74.7,72.2,30.07,NNE,31,0.0,2.0,92,0.00,,,0.08,Wunderground v.1.15,2013-07-16 09:24:00,
2013-07-16 05:29:00,74.7,72.2,30.07,NNE,30,0.0,2.0,92,0.00,,,0.08,Wunderground v.1.15,2013-07-16 09:29:00,
2013-07-16 05:34:00,74.7,72.2,30.07,NNE,30,0.0,1.0,92,0.00,,,0.08,Wunderground v.1.15,2013-07-16 09:34:00,
2013-07-16 05:39:00,74.6,72.4,30.07,NNE,30,0.0,1.0,93,0.00,,,0.08,Wunderground v.1.15,2013-07-16 09:39:00,
2013-07-16 05:44:00,74.6,72.4,30.07,SSE,156,0.0,0.0,93,0.00,,,0.08,Wunderground v.1.15,2013-07-16 09:44:00,
2013-07-16 05:49:00,74.5,72.3,30.07,SSE,155,0.0,1.0,93,0.00,,,0.08,Wunderground v.1.15,2013-07-16 09:49:00,
2013-07-16 05:54:00,74.4,72.2,30.07,SE,146,1.0,1.0,93,0.00,,,0.08,Wunderground v.1.15,2013-07-16 09:54:00,
2013-07-16 05:59:00,74.4,72.2,30.07,NNE,31,1.0,2.0,93,0.00,,,0.08,Wunderground v.1.15,2013-07-16 09:59:00,
2013-07-16 06:04:00,74.4,72.2,30.07,NE,43,4.0,4.0,93,0.00,,,0.08,Wunderground v.1.15,2013-07-16 10:04:00,
2013-07-16 06:09:00,74.4,72.2,30.07,NNE,26,1.0,4.0,93,0.00,,,0.08,Wunderground v.1.15,2013-07-16 10:09:00,
2013-07-16 06:14:00,74.4,72.2,30.07,NE,36,0.0,2.0,93,0.00,,,0.08,Wunderground v.1.15,2013-07-16 10:14:00,
2013-07-16 06:19:00,74.4,72.2,30.07,NNE,19,2.0,2.0,93,0.00,,,0.08,Wunderground v.1.15,2013-07-16 10:19:00,
2013-07-16 06:24:00,74.4,72.2,30.07,NNE,21,0.0,1.0,93,0.00,,,0.08,Wunderground v.1.15,2013-07-16 10:24:00,
2013-07-16 06:29:00,74.4,72.2,30.07,NNE,21,0.0,1.0,93,0.00,,,0.08,Wunderground v.1.15,2013-07-16 10:29:00,
2013-07-16 06:34:00,74.4,72.2,30.07,NNE,22,0.0,1.0,93,0.00,,,0.08,Wunderground v.1.15,2013-07-16 10:34:00,
2013-07-16 06:39:00,74.3,72.1,30.07,NNE,21,0.0,1.0,93,0.00,,,0.08,Wunderground v.1.15,2013-07-16 10:39:00,
2013-07-16 06:44:00,74.3,72.1,30.07,NNE,22,0.0,1.0,93,0.00,,,0.08,Wunderground v.1.15,2013-07-16 10:44:00,
2013-07-16 06:49:00,74.4,72.2,30.07,NNE,19,0.0,1.0,93,0.00,,,0.08,Wunderground v.1.15,2013-07-16 10:49:00,
2013-07-16 06:54:00,74.5,72.3,30.07,NE,38,1.0,1.0,93,0.00,,,0.08,Wunderground v.1.15,2013-07-16 10:54:00,
2013-07-16 06:59:00,74.5,72.3,30.07,NNE,32,1.0,1.0,93,0.00,,,0.08,Wunderground v.1.15,2013-07-16 10:59:00,
2013-07-16 07:04:00,74.6,72.4,30.08,NNE,32,1.0,2.0,93,0.00,,,0.08,Wunderground v.1.15,2013-07-16 11:04:00,
2013-07-16 07:09:00,74.7,72.5,30.08,NNE,12,0.0,2.0,93,0.00,,,0.08,Wunderground v.1.15,2013-07-16 11:09:00,
2013-07-16 07:14:00,74.8,72.3,30.08,NE,39,2.0,2.0,92,0.00,,,0.08,Wunderground v.1.15,2013-07-16 11:14:00,
2013-07-16 07:20:00,75.0,72.5,30.08,NNE,23,1.0,2.0,92,0.00,,,0.08,Wunderground v.1.15,2013-07-16 11:20:00,
2013-07-16 07:25:00,75.1,72.6,30.08,NNE,23,0.0,1.0,92,0.00,,,0.08,Wunderground v.1.15,2013-07-16 11:25:00,
2013-07-16 07:30:00,75.2,72.7,30.08,NNE,22,0.0,1.0,92,0.00,,,0.08,Wunderground v.1.15,2013-07-16 11:30:00,
2013-07-16 07:35:00,75.4,72.9,30.09,NNE,26,0.0,1.0,92,0.00,,,0.09,Wunderground v.1.15,2013-07-16 11:35:00,
2013-07-16 07:40:00,75.8,73.6,30.09,NNE,26,0.0,1.0,93,0.00,,,0.09,Wunderground v.1.15,2013-07-16 11:40:00,
2013-07-16 07:45:00,76.1,73.6,30.09,NNE,25,0.0,0.0,92,0.00,,,0.09,Wunderground v.1.15,2013-07-16 11:45:00,
2013-07-16 07:50:00,76.2,73.7,30.09,NNE,12,0.0,0.0,92,0.00,,,0.09,Wunderground v.1.15,2013-07-16 11:50:00,
2013-07-16 07:55:00,76.5,74.0,30.09,NNE,16,0.0,2.0,92,0.00,,,0.09,Wunderground v.1.15,2013-07-16 11:55:00,
2013-07-16 08:00:00,76.9,74.4,30.09,NE,34,2.0,2.0,92,0.00,,,0.09,Wunderground v.1.15,2013-07-16 12:00:00,
2013-07-16 08:05:00,77.1,74.3,30.09,NE,38,2.0,3.0,91,0.00,,,0.09,Wunderground v.1.15,2013-07-16 12:05:00,
2013-07-16 08:10:00,77.6,74.8,30.09,NNE,26,2.0,2.0,91,0.00,,,0.09,Wunderground v.1.15,2013-07-16 12:10:00,
2013-07-16 08:15:00,78.2,74.7,30.09,NNE,32,3.0,4.0,89,0.00,,,0.09,Wunderground v.1.15,2013-07-16 12:15:00,
2013-07-16 08:20:00,78.7,74.5,30.09,NNE,17,2.0,2.0,87,0.00,,,0.09,Wunderground v.1.15,2013-07-16 12:20:00,
2013-07-16 08:25:00,79.0,74.5,30.09,NNW,328,2.0,6.0,86,0.00,,,0.09,Wunderground v.1.15,2013-07-16 12:25:00,
2013-07-16 08:30:00,79.6,74.7,30.09,NW,317,1.0,3.0,85,0.00,,,0.09,Wunderground v.1.15,2013-07-16 12:30:00,
2013-07-16 08:35:00,80.1,74.8,30.10,NNE,26,3.0,10.0,84,0.00,,,0.09,Wunderground v.1.15,2013-07-16 12:35:00,
2013-07-16 08:40:00,80.5,74.5,30.10,NW,309,4.0,5.0,82,0.00,,,0.09,Wunderground v.1.15,2013-07-16 12:40:00,
2013-07-16 08:45:00,80.6,73.9,30.10,SSE,149,2.0,12.0,80,0.00,,,0.09,Wunderground v.1.15,2013-07-16 12:45:00,
2013-07-16 08:50:00,80.4,74.4,30.10,NNE,19,1.0,3.0,82,0.00,,,0.09,Wunderground v.1.15,2013-07-16 12:50:00,
2013-07-16 08:55:00,80.1,74.1,30.10,NNW,346,4.0,8.0,82,0.00,,,0.09,Wunderground v.1.15,2013-07-16 12:55:00,
2013-07-16 09:00:00,79.8,74.2,30.10,SE,129,6.0,8.0,83,0.00,,,0.09,Wunderground v.1.15,2013-07-16 13:00:00,
2013-07-16 09:05:00,78.2,73.0,30.12,SSE,155,7.0,14.0,84,0.43,,,0.13,Wunderground v.1.15,2013-07-16 13:05:00,
2013-07-16 09:10:00,76.2,72.0,30.12,South,181,11.0,11.0,87,0.10,,,0.13,Wunderground v.1.15,2013-07-16 13:10:00,
2013-07-16 09:15:00,75.2,72.1,30.12,SSE,164,7.0,15.0,90,0.80,,,0.20,Wunderground v.1.15,2013-07-16 13:15:00,
2013-07-16 09:20:00,74.4,71.6,30.13,SE,146,4.0,7.0,91,0.18,,,0.21,Wunderground v.1.15,2013-07-16 13:20:00,
2013-07-16 09:25:00,74.1,71.6,30.13,SE,138,4.0,10.0,92,0.07,,,0.21,Wunderground v.1.15,2013-07-16 13:25:00,
2013-07-16 09:30:00,74.0,71.5,30.13,SE,144,3.0,7.0,92,0.04,,,0.21,Wunderground v.1.15,2013-07-16 13:30:00,
2013-07-16 09:35:00,73.9,71.7,30.13,SE,138,4.0,7.0,93,0.00,,,0.21,Wunderground v.1.15,2013-07-16 13:35:00,
2013-07-16 09:41:00,73.9,71.7,30.13,SE,142,1.0,4.0,93,0.00,,,0.21,Wunderground v.1.15,2013-07-16 13:41:00,
2013-07-16 09:46:00,74.0,71.8,30.13,ESE,105,1.0,7.0,93,0.00,,,0.21,Wunderground v.1.15,2013-07-16 13:46:00,
2013-07-16 09:51:00,74.0,72.2,30.13,SSE,161,1.0,3.0,94,0.00,,,0.21,Wunderground v.1.15,2013-07-16 13:51:00,
2013-07-16 09:56:00,74.0,71.8,30.13,SE,137,1.0,5.0,93,0.00,,,0.21,Wunderground v.1.15,2013-07-16 13:56:00,
2013-07-16 10:01:00,73.8,71.3,30.13,SE,127,0.0,1.0,92,0.00,,,0.21,Wunderground v.1.15,2013-07-16 14:01:00,
2013-07-16 10:06:00,73.9,71.7,30.13,SE,137,0.0,2.0,93,0.00,,,0.21,Wunderground v.1.15,2013-07-16 14:06:00,
2013-07-16 10:11:00,74.0,71.8,30.13,SE,136,0.0,1.0,93,0.00,,,0.21,Wunderground v.1.15,2013-07-16 14:11:00,
2013-07-16 10:16:00,74.1,71.6,30.13,SSE,156,2.0,5.0,92,0.00,,,0.21,Wunderground v.1.15,2013-07-16 14:16:00,
2013-07-16 10:21:00,74.4,72.2,30.14,SSW,199,1.0,4.0,93,0.00,,,0.21,Wunderground v.1.15,2013-07-16 14:21:00,
2013-07-16 10:26:00,74.6,72.1,30.14,SSE,159,2.0,6.0,92,0.00,,,0.21,Wunderground v.1.15,2013-07-16 14:26:00,
2013-07-16 10:31:00,74.9,72.1,30.14,SSE,148,2.0,5.0,91,0.00,,,0.21,Wunderground v.1.15,2013-07-16 14:31:00,
2013-07-16 10:36:00,75.3,71.8,30.14,ESE,115,3.0,6.0,89,0.00,,,0.21,Wunderground v.1.15,2013-07-16 14:36:00,
2013-07-16 10:41:00,75.7,71.2,30.14,SE,136,7.0,9.0,86,0.00,,,0.21,Wunderground v.1.15,2013-07-16 14:41:00,
2013-07-16 10:46:00,76.1,71.6,30.14,East,92,14.0,14.0,86,0.00,,,0.21,Wunderground v.1.15,2013-07-16 14:46:00,
2013-07-16 10:51:00,76.3,71.8,30.14,NNW,342,2.0,4.0,86,0.00,,,0.21,Wunderground v.1.15,2013-07-16 14:51:00,
2013-07-16 10:56:00,76.5,71.7,30.14,ESE,103,1.0,6.0,85,0.00,,,0.21,Wunderground v.1.15,2013-07-16 14:56:00,
2013-07-16 11:01:00,76.7,71.8,30.14,ESE,103,1.0,8.0,85,0.00,,,0.21,Wunderground v.1.15,2013-07-16 15:01:00,
2013-07-16 11:06:00,77.0,72.8,30.14,ESE,120,2.0,11.0,87,0.00,,,0.21,Wunderground v.1.15,2013-07-16 15:06:00,
2013-07-16 11:11:00,77.2,73.0,30.14,East,101,13.0,13.0,87,0.00,,,0.21,Wunderground v.1.15,2013-07-16 15:11:00,
2013-07-16 11:16:00,77.1,72.6,30.14,SE,134,8.0,13.0,86,0.00,,,0.21,Wunderground v.1.15,2013-07-16 15:16:00,
2013-07-16 11:21:00,76.8,72.3,30.14,ESE,103,5.0,12.0,86,0.00,,,0.21,Wunderground v.1.15,2013-07-16 15:21:00,
2013-07-16 11:26:00,76.8,72.6,30.14,SE,137,8.0,12.0,87,0.00,,,0.21,Wunderground v.1.15,2013-07-16 15:26:00,
2013-07-16 11:31:00,77.0,72.8,30.14,NNE,24,4.0,6.0,87,0.00,,,0.21,Wunderground v.1.15,2013-07-16 15:31:00,
2013-07-16 11:36:00,77.2,73.0,30.13,SSE,151,2.0,11.0,87,0.00,,,0.21,Wunderground v.1.15,2013-07-16 15:36:00,
2013-07-16 11:41:00,77.4,73.2,30.13,SE,135,6.0,9.0,87,0.00,,,0.21,Wunderground v.1.15,2013-07-16 15:41:00,
2013-07-16 11:46:00,77.4,72.5,30.13,SE,142,6.0,13.0,85,0.00,,,0.21,Wunderground v.1.15,2013-07-16 15:46:00,
2013-07-16 11:51:00,77.3,72.8,30.14,ENE,73,2.0,7.0,86,0.00,,,0.21,Wunderground v.1.15,2013-07-16 15:51:00,
2013-07-16 11:56:00,77.2,72.3,30.14,SE,138,3.0,12.0,85,0.00,,,0.21,Wunderground v.1.15,2013-07-16 15:56:00,
2013-07-16 12:01:00,77.2,72.3,30.14,South,171,6.0,6.0,85,0.00,,,0.21,Wunderground v.1.15,2013-07-16 16:01:00,
2013-07-16 12:06:00,77.1,72.6,30.15,NNW,343,2.0,16.0,86,0.00,,,0.21,Wunderground v.1.15,2013-07-16 16:06:00,
2013-07-16 12:11:00,77.0,72.5,30.15,SE,132,1.0,7.0,86,0.00,,,0.21,Wunderground v.1.15,2013-07-16 16:11:00,
2013-07-16 12:17:00,76.8,72.6,30.15,SE,134,3.0,8.0,87,0.00,,,0.21,Wunderground v.1.15,2013-07-16 16:17:00,
2013-07-16 12:22:00,76.8,73.0,30.15,SE,136,3.0,8.0,88,0.00,,,0.21,Wunderground v.1.15,2013-07-16 16:22:00,
2013-07-16 12:27:00,76.4,72.2,30.15,SSE,157,3.0,12.0,87,0.00,,,0.21,Wunderground v.1.15,2013-07-16 16:27:00,
2013-07-16 12:32:00,76.3,72.5,30.15,ESE,103,4.0,7.0,88,0.00,,,0.21,Wunderground v.1.15,2013-07-16 16:32:00,
2013-07-16 12:37:00,76.1,72.3,30.16,ESE,111,8.0,9.0,88,0.00,,,0.22,Wunderground v.1.15,2013-07-16 16:37:00,
2013-07-16 12:42:00,75.8,71.7,30.16,SSE,159,8.0,16.0,87,0.00,,,0.22,Wunderground v.1.15,2013-07-16 16:42:00,
2013-07-16 12:47:00,75.7,71.6,30.16,SE,140,4.0,16.0,87,0.00,,,0.22,Wunderground v.1.15,2013-07-16 16:47:00,
2013-07-16 12:52:00,75.4,70.9,30.16,SSE,153,3.0,10.0,86,0.00,,,0.22,Wunderground v.1.15,2013-07-16 16:52:00,
2013-07-16 12:57:00,75.4,71.3,30.16,East,99,6.0,10.0,87,0.00,,,0.22,Wunderground v.1.15,2013-07-16 16:57:00,
2013-07-16 13:02:00,75.4,70.9,30.16,SE,127,6.0,7.0,86,0.00,,,0.22,Wunderground v.1.15,2013-07-16 17:02:00,
2013-07-16 13:07:00,75.3,71.2,30.17,South,171,2.0,9.0,87,0.00,,,0.22,Wunderground v.1.15,2013-07-16 17:07:00,
2013-07-16 13:12:00,75.2,71.4,30.17,SSE,160,3.0,7.0,88,0.00,,,0.22,Wunderground v.1.15,2013-07-16 17:12:00,
2013-07-16 13:17:00,75.1,71.3,30.17,SE,129,3.0,9.0,88,0.00,,,0.22,Wunderground v.1.15,2013-07-16 17:17:00,
2013-07-16 13:22:00,75.1,71.3,30.16,SSE,148,5.0,6.0,88,0.00,,,0.22,Wunderground v.1.15,2013-07-16 17:22:00,
2013-07-16 13:27:00,75.1,71.3,30.16,SSE,168,1.0,6.0,88,0.00,,,0.22,Wunderground v.1.15,2013-07-16 17:27:00,
2013-07-16 13:32:00,75.1,71.3,30.16,SE,146,4.0,6.0,88,0.00,,,0.22,Wunderground v.1.15,2013-07-16 17:32:00,
2013-07-16 13:37:00,75.1,71.3,30.15,South,175,4.0,6.0,88,0.00,,,0.23,Wunderground v.1.15,2013-07-16 17:37:00,
2013-07-16 13:42:00,75.0,70.9,30.15,SE,133,0.0,5.0,87,0.00,,,0.23,Wunderground v.1.15,2013-07-16 17:42:00,
2013-07-16 13:47:00,75.1,71.3,30.15,SE,144,2.0,5.0,88,0.00,,,0.23,Wunderground v.1.15,2013-07-16 17:47:00,
2013-07-16 13:52:00,75.1,71.3,30.14,South,187,3.0,3.0,88,0.00,,,0.23,Wunderground v.1.15,2013-07-16 17:52:00,
2013-07-16 13:57:00,75.1,71.6,30.14,SE,126,0.0,3.0,89,0.00,,,0.23,Wunderground v.1.15,2013-07-16 17:57:00,
2013-07-16 14:02:00,75.2,71.7,30.14,SE,146,0.0,1.0,89,0.00,,,0.24,Wunderground v.1.15,2013-07-16 18:02:00,
2013-07-16 14:07:00,75.3,71.8,30.14,North,11,1.0,2.0,89,0.00,,,0.24,Wunderground v.1.15,2013-07-16 18:07:00,
2013-07-16 14:12:00,75.3,71.8,30.14,NE,35,2.0,2.0,89,0.00,,,0.24,Wunderground v.1.15,2013-07-16 18:12:00,
2013-07-16 14:17:00,75.6,72.1,30.14,NE,46,1.0,5.0,89,0.00,,,0.24,Wunderground v.1.15,2013-07-16 18:17:00,
2013-07-16 14:22:00,75.8,72.3,30.14,NE,38,3.0,4.0,89,0.00,,,0.24,Wunderground v.1.15,2013-07-16 18:22:00,
2013-07-16 14:27:00,75.9,72.1,30.14,North,11,3.0,5.0,88,0.00,,,0.24,Wunderground v.1.15,2013-07-16 18:27:00,
2013-07-16 14:33:00,76.2,72.4,30.14,SSE,152,2.0,5.0,88,0.00,,,0.24,Wunderground v.1.15,2013-07-16 18:33:00,
2013-07-16 14:38:00,76.6,72.8,30.13,South,169,3.0,5.0,88,0.00,,,0.24,Wunderground v.1.15,2013-07-16 18:38:00,
2013-07-16 14:43:00,76.9,72.4,30.13,SE,128,3.0,7.0,86,0.00,,,0.24,Wunderground v.1.15,2013-07-16 18:43:00,
2013-07-16 14:48:00,77.3,72.8,30.13,SE,140,1.0,7.0,86,0.00,,,0.24,Wunderground v.1.15,2013-07-16 18:48:00,
2013-07-16 14:53:00,77.7,72.8,30.12,SE,145,3.0,5.0,85,0.00,,,0.24,Wunderground v.1.15,2013-07-16 18:53:00,
2013-07-16 14:58:00,78.1,72.9,30.12,SE,145,0.0,5.0,84,0.00,,,0.24,Wunderground v.1.15,2013-07-16 18:58:00,
2013-07-16 15:03:00,78.5,73.3,30.12,East,88,0.0,3.0,84,0.00,,,0.24,Wunderground v.1.15,2013-07-16 19:03:00,
2013-07-16 15:08:00,78.9,73.3,30.11,NNE,15,1.0,5.0,83,0.00,,,0.24,Wunderground v.1.15,2013-07-16 19:08:00,
2013-07-16 15:13:00,79.2,73.6,30.11,SSE,165,2.0,3.0,83,0.00,,,0.24,Wunderground v.1.15,2013-07-16 19:13:00,
2013-07-16 15:18:00,79.6,73.6,30.11,ESE,123,1.0,6.0,82,0.00,,,0.24,Wunderground v.1.15,2013-07-16 19:18:00,
2013-07-16 15:23:00,80.1,73.0,30.10,NE,35,0.0,4.0,79,0.00,,,0.24,Wunderground v.1.15,2013-07-16 19:23:00,
2013-07-16 15:28:00,80.3,73.2,30.10,SSE,147,0.0,7.0,79,0.00,,,0.24,Wunderground v.1.15,2013-07-16 19:28:00,
2013-07-16 15:33:00,80.7,73.2,30.10,North,355,1.0,4.0,78,0.00,,,0.24,Wunderground v.1.15,2013-07-16 19:33:00,
2013-07-16 15:38:00,81.0,72.3,30.10,SE,136,2.0,5.0,75,0.00,,,0.24,Wunderground v.1.15,2013-07-16 19:38:00,
2013-07-16 15:43:00,81.3,72.6,30.10,NE,42,5.0,9.0,75,0.00,,,0.24,Wunderground v.1.15,2013-07-16 19:43:00,
2013-07-16 15:48:00,81.4,72.3,30.10,SSE,163,4.0,9.0,74,0.00,,,0.24,Wunderground v.1.15,2013-07-16 19:48:00,
2013-07-16 15:53:00,81.4,71.9,30.10,NNW,343,3.0,8.0,73,0.00,,,0.24,Wunderground v.1.15,2013-07-16 19:53:00,
2013-07-16 15:58:00,81.4,72.3,30.10,NNW,330,3.0,8.0,74,0.00,,,0.24,Wunderground v.1.15,2013-07-16 19:58:00,
2013-07-16 16:03:00,81.4,71.9,30.09,NNE,16,2.0,7.0,73,0.00,,,0.24,Wunderground v.1.15,2013-07-16 20:03:00,
2013-07-16 16:08:00,81.6,71.7,30.09,NNE,16,3.0,7.0,72,0.00,,,0.24,Wunderground v.1.15,2013-07-16 20:08:00,
2013-07-16 16:13:00,81.8,71.9,30.09,NW,319,2.0,4.0,72,0.00,,,0.24,Wunderground v.1.15,2013-07-16 20:13:00,
2013-07-16 16:18:00,82.3,72.0,30.08,NNW,348,1.0,5.0,71,0.00,,,0.24,Wunderground v.1.15,2013-07-16 20:18:00,
2013-07-16 16:23:00,82.7,71.9,30.08,SW,226,0.0,3.0,70,0.00,,,0.24,Wunderground v.1.15,2013-07-16 20:23:00,
2013-07-16 16:28:00,83.0,71.8,30.08,SSE,164,5.0,5.0,69,0.00,,,0.24,Wunderground v.1.15,2013-07-16 20:28:00,
2013-07-16 16:33:00,83.1,72.3,30.09,East,98,2.0,6.0,70,0.00,,,0.24,Wunderground v.1.15,2013-07-16 20:33:00,
2013-07-16 16:38:00,83.0,71.3,30.09,NNE,31,5.0,9.0,68,0.00,,,0.24,Wunderground v.1.15,2013-07-16 20:38:00,
2013-07-16 16:43:00,82.8,72.4,30.09,ESE,107,5.0,7.0,71,0.00,,,0.24,Wunderground v.1.15,2013-07-16 20:43:00,
2013-07-16 16:48:00,82.5,73.0,30.09,South,172,1.0,7.0,73,0.00,,,0.24,Wunderground v.1.15,2013-07-16 20:48:00,
2013-07-16 16:53:00,82.4,72.9,30.09,East,101,1.0,2.0,73,0.00,,,0.24,Wunderground v.1.15,2013-07-16 20:53:00,
2013-07-16 16:58:00,82.3,72.8,30.09,SSE,149,4.0,6.0,73,0.00,,,0.24,Wunderground v.1.15,2013-07-16 20:58:00,
2013-07-16 17:03:00,82.2,71.9,30.09,SE,137,7.0,7.0,71,0.00,,,0.24,Wunderground v.1.15,2013-07-16 21:03:00,
2013-07-16 17:08:00,82.3,72.4,30.09,NNW,327,1.0,8.0,72,0.00,,,0.24,Wunderground v.1.15,2013-07-16 21:08:00,
2013-07-16 17:13:00,82.3,72.0,30.09,SE,132,4.0,6.0,71,0.00,,,0.24,Wunderground v.1.15,2013-07-16 21:13:00,
2013-07-16 17:18:00,82.2,72.3,30.09,East,94,2.0,8.0,72,0.00,,,0.24,Wunderground v.1.15,2013-07-16 21:18:00,
2013-07-16 17:23:00,82.4,71.2,30.09,WSW,252,0.0,7.0,69,0.00,,,0.24,Wunderground v.1.15,2013-07-16 21:23:00,
2013-07-16 17:28:00,82.5,71.3,30.09,SE,133,3.0,9.0,69,0.00,,,0.24,Wunderground v.1.15,2013-07-16 21:28:00,
2013-07-16 17:33:00,82.6,71.4,30.09,North,355,1.0,4.0,69,0.00,,,0.24,Wunderground v.1.15,2013-07-16 21:33:00,
2013-07-16 17:38:00,82.5,71.7,30.09,SSE,161,4.0,5.0,70,0.00,,,0.24,Wunderground v.1.15,2013-07-16 21:38:00,
2013-07-16 17:43:00,82.4,71.6,30.09,South,178,1.0,4.0,70,0.00,,,0.24,Wunderground v.1.15,2013-07-16 21:43:00,
2013-07-16 17:48:00,82.4,72.0,30.09,SSE,155,3.0,4.0,71,0.00,,,0.24,Wunderground v.1.15,2013-07-16 21:48:00,
2013-07-16 17:53:00,82.7,71.9,30.09,NNE,26,4.0,8.0,70,0.00,,,0.24,Wunderground v.1.15,2013-07-16 21:53:00,
2013-07-16 17:58:00,83.2,71.5,30.09,SSE,163,3.0,9.0,68,0.00,,,0.24,Wunderground v.1.15,2013-07-16 21:58:00,
2013-07-16 18:03:00,83.3,72.1,30.09,SSE,148,6.0,7.0,69,0.00,,,0.24,Wunderground v.1.15,2013-07-16 22:03:00,
2013-07-16 18:08:00,83.4,72.2,30.09,SSE,148,2.0,7.0,69,0.00,,,0.24,Wunderground v.1.15,2013-07-16 22:08:00,
2013-07-16 18:13:00,83.3,72.9,30.09,SSE,159,1.0,4.0,71,0.00,,,0.24,Wunderground v.1.15,2013-07-16 22:13:00,
2013-07-16 18:18:00,83.4,72.6,30.09,South,175,3.0,7.0,70,0.00,,,0.24,Wunderground v.1.15,2013-07-16 22:18:00,
2013-07-16 18:23:00,83.5,73.1,30.09,South,174,2.0,7.0,71,0.00,,,0.24,Wunderground v.1.15,2013-07-16 22:23:00,
2013-07-16 18:28:00,83.4,73.4,30.09,SW,218,3.0,7.0,72,0.00,,,0.24,Wunderground v.1.15,2013-07-16 22:28:00,
2013-07-16 18:33:00,83.3,73.7,30.09,NW,321,3.0,4.0,73,0.00,,,0.24,Wunderground v.1.15,2013-07-16 22:33:00,
2013-07-16 18:38:00,82.9,73.8,30.09,NNE,26,1.0,7.0,74,0.00,,,0.24,Wunderground v.1.15,2013-07-16 22:38:00,
2013-07-16 18:43:00,82.4,74.5,30.09,SSE,163,5.0,7.0,77,0.00,,,0.24,Wunderground v.1.15,2013-07-16 22:43:00,
2013-07-16 18:48:00,81.7,74.2,30.10,ESE,106,2.0,12.0,78,0.00,,,0.24,Wunderground v.1.15,2013-07-16 22:48:00,
2013-07-16 18:53:00,81.4,74.3,30.10,SE,138,3.0,11.0,79,0.00,,,0.24,Wunderground v.1.15,2013-07-16 22:53:00,
2013-07-16 18:58:00,81.2,74.4,30.10,SE,132,0.0,11.0,80,0.00,,,0.24,Wunderground v.1.15,2013-07-16 22:58:00,
2013-07-16 19:03:00,80.9,74.1,30.10,SE,144,3.0,8.0,80,0.00,,,0.24,Wunderground v.1.15,2013-07-16 23:03:00,
2013-07-16 19:08:00,80.7,73.6,30.10,SE,128,4.0,8.0,79,0.00,,,0.24,Wunderground v.1.15,2013-07-16 23:08:00,
2013-07-16 19:13:00,80.7,74.0,30.10,SE,136,4.0,5.0,80,0.00,,,0.24,Wunderground v.1.15,2013-07-16 23:13:00,
2013-07-16 19:19:00,80.6,73.9,30.10,SE,130,3.0,6.0,80,0.00,,,0.24,Wunderground v.1.15,2013-07-16 23:19:00,
2013-07-16 19:24:00,80.5,73.8,30.10,SSW,207,1.0,9.0,80,0.00,,,0.24,Wunderground v.1.15,2013-07-16 23:24:00,
2013-07-16 19:29:00,80.3,73.9,30.10,ESE,111,7.0,9.0,81,0.00,,,0.24,Wunderground v.1.15,2013-07-16 23:29:00,
2013-07-16 19:34:00,80.2,73.8,30.11,NNE,17,1.0,7.0,81,0.00,,,0.24,Wunderground v.1.15,2013-07-16 23:34:00,
2013-07-16 19:39:00,80.1,73.7,30.11,SE,133,1.0,10.0,81,0.00,,,0.24,Wunderground v.1.15,2013-07-16 23:39:00,
2013-07-16 19:44:00,80.1,73.7,30.11,SSE,160,1.0,9.0,81,0.00,,,0.24,Wunderground v.1.15,2013-07-16 23:44:00,
2013-07-16 19:49:00,80.1,74.1,30.11,NNE,26,6.0,9.0,82,0.00,,,0.24,Wunderground v.1.15,2013-07-16 23:49:00,
2013-07-16 19:54:00,80.0,74.0,30.11,NNW,338,0.0,5.0,82,0.00,,,0.24,Wunderground v.1.15,2013-07-16 23:54:00,
2013-07-16 19:59:00,80.0,73.6,30.11,South,182,2.0,5.0,81,0.00,,,0.24,Wunderground v.1.15,2013-07-16 23:59:00,
2013-07-16 20:04:00,80.0,73.3,30.10,NE,53,0.0,9.0,80,0.00,,,0.24,Wunderground v.1.15,2013-07-17 00:04:00,
2013-07-16 20:09:00,80.0,73.3,30.10,NNE,30,0.0,9.0,80,0.00,,,0.24,Wunderground v.1.15,2013-07-17 00:09:00,
2013-07-16 20:14:00,80.0,73.3,30.10,NNE,19,4.0,6.0,80,0.00,,,0.24,Wunderground v.1.15,2013-07-17 00:14:00,
2013-07-16 20:19:00,80.1,73.4,30.10,ENE,58,7.0,7.0,80,0.00,,,0.24,Wunderground v.1.15,2013-07-17 00:19:00,
2013-07-16 20:24:00,80.1,73.0,30.10,NE,34,3.0,5.0,79,0.00,,,0.24,Wunderground v.1.15,2013-07-17 00:24:00,
2013-07-16 20:29:00,79.9,72.8,30.10,NNE,27,5.0,13.0,79,0.00,,,0.24,Wunderground v.1.15,2013-07-17 00:29:00,
2013-07-16 20:34:00,79.5,72.4,30.10,North,355,1.0,6.0,79,0.00,,,0.24,Wunderground v.1.15,2013-07-17 00:34:00,
2013-07-16 20:39:00,79.2,72.1,30.10,North,350,2.0,6.0,79,0.00,,,0.24,Wunderground v.1.15,2013-07-17 00:39:00,
2013-07-16 20:44:00,78.9,72.2,30.10,NNE,26,1.0,5.0,80,0.00,,,0.24,Wunderground v.1.15,2013-07-17 00:44:00,
2013-07-16 20:49:00,78.7,71.6,30.11,NNE,13,2.0,6.0,79,0.00,,,0.24,Wunderground v.1.15,2013-07-17 00:49:00,
2013-07-16 20:54:00,78.6,71.9,30.11,NNE,19,1.0,3.0,80,0.00,,,0.24,Wunderground v.1.15,2013-07-17 00:54:00,
2013-07-16 20:59:00,78.4,71.7,30.11,NNE,13,0.0,3.0,80,0.00,,,0.24,Wunderground v.1.15,2013-07-17 00:59:00,
2013-07-16 21:04:00,78.3,71.6,30.11,NE,51,0.0,2.0,80,0.00,,,0.24,Wunderground v.1.15,2013-07-17 01:04:00,
2013-07-16 21:09:00,78.3,72.0,30.11,SSE,150,0.0,2.0,81,0.00,,,0.24,Wunderground v.1.15,2013-07-17 01:09:00,
2013-07-16 21:14:00,78.1,71.8,30.11,SE,140,0.0,3.0,81,0.00,,,0.24,Wunderground v.1.15,2013-07-17 01:14:00,
2013-07-16 21:19:00,78.0,72.1,30.12,ESE,111,0.0,5.0,82,0.00,,,0.24,Wunderground v.1.15,2013-07-17 01:19:00,
2013-07-16 21:24:00,77.8,71.1,30.12,SE,136,1.0,3.0,80,0.00,,,0.24,Wunderground v.1.15,2013-07-17 01:24:00,
2013-07-16 21:29:00,77.8,71.1,30.12,ESE,117,0.0,3.0,80,0.00,,,0.24,Wunderground v.1.15,2013-07-17 01:29:00,
2013-07-16 21:34:00,77.7,71.4,30.13,SE,132,0.0,2.0,81,0.00,,,0.24,Wunderground v.1.15,2013-07-17 01:34:00,
2013-07-16 21:39:00,77.7,71.4,30.13,SE,127,1.0,4.0,81,0.00,,,0.24,Wunderground v.1.15,2013-07-17 01:39:00,
2013-07-16 21:44:00,77.6,71.7,30.13,SSE,159,0.0,1.0,82,0.00,,,0.24,Wunderground v.1.15,2013-07-17 01:44:00,
2013-07-16 21:49:00,77.5,71.6,30.13,SSE,159,0.0,1.0,82,0.00,,,0.24,Wunderground v.1.15,2013-07-17 01:49:00,
2013-07-16 21:54:00,77.4,71.8,30.13,ENE,61,0.0,2.0,83,0.00,,,0.24,Wunderground v.1.15,2013-07-17 01:54:00,
2013-07-16 21:59:00,77.5,72.3,30.13,NNE,31,1.0,5.0,84,0.00,,,0.24,Wunderground v.1.15,2013-07-17 01:59:00,
2013-07-16 22:04:00,77.5,72.3,30.14,NNE,23,0.0,1.0,84,0.00,,,0.24,Wunderground v.1.15,2013-07-17 02:04:00,
2013-07-16 22:09:00,77.4,72.5,30.14,NNW,346,1.0,1.0,85,0.00,,,0.24,Wunderground v.1.15,2013-07-17 02:09:00,
2013-07-16 22:14:00,77.3,72.1,30.14,NNE,21,1.0,2.0,84,0.00,,,0.24,Wunderground v.1.15,2013-07-17 02:14:00,
2013-07-16 22:19:00,77.2,72.3,30.14,SSW,209,0.0,2.0,85,0.00,,,0.24,Wunderground v.1.15,2013-07-17 02:19:00,
2013-07-16 22:24:00,77.1,72.2,30.14,SSE,153,1.0,1.0,85,0.00,,,0.24,Wunderground v.1.15,2013-07-17 02:24:00,
2013-07-16 22:29:00,77.0,72.1,30.14,South,176,0.0,3.0,85,0.00,,,0.24,Wunderground v.1.15,2013-07-17 02:29:00,
2013-07-16 22:34:00,76.9,72.0,30.14,SSW,199,0.0,0.0,85,0.00,,,0.24,Wunderground v.1.15,2013-07-17 02:34:00,
2013-07-16 22:39:00,76.8,71.9,30.14,SSE,165,1.0,1.0,85,0.00,,,0.24,Wunderground v.1.15,2013-07-17 02:39:00,
2013-07-16 22:44:00,76.8,71.9,30.14,SSE,163,0.0,0.0,85,0.00,,,0.24,Wunderground v.1.15,2013-07-17 02:44:00,
2013-07-16 22:49:00,76.8,71.9,30.14,SSE,161,0.0,0.0,85,0.00,,,0.24,Wunderground v.1.15,2013-07-17 02:49:00,
2013-07-16 22:54:00,76.8,71.9,30.14,SSE,161,0.0,1.0,85,0.00,,,0.24,Wunderground v.1.15,2013-07-17 02:54:00,
2013-07-16 22:59:00,77.0,72.1,30.14,West,280,0.0,1.0,85,0.00,,,0.24,Wunderground v.1.15,2013-07-17 02:59:00,
2013-07-16 23:04:00,77.0,72.1,30.13,ESE,118,0.0,1.0,85,0.00,,,0.24,Wunderground v.1.15,2013-07-17 03:04:00,
2013-07-16 23:09:00,77.0,72.1,30.13,NNW,328,0.0,1.0,85,0.00,,,0.24,Wunderground v.1.15,2013-07-17 03:09:00,
2013-07-16 23:14:00,77.0,72.1,30.13,NNE,17,1.0,2.0,85,0.00,,,0.24,Wunderground v.1.15,2013-07-17 03:14:00,
2013-07-16 23:19:00,77.1,71.9,30.13,NNE,14,2.0,2.0,84,0.00,,,0.24,Wunderground v.1.15,2013-07-17 03:19:00,
2013-07-16 23:25:00,77.2,72.0,30.13,NNE,27,0.0,2.0,84,0.00,,,0.24,Wunderground v.1.15,2013-07-17 03:25:00,
2013-07-16 23:30:00,77.2,72.0,30.13,NNE,26,0.0,2.0,84,0.00,,,0.24,Wunderground v.1.15,2013-07-17 03:30:00,
2013-07-16 23:35:00,77.2,72.0,30.14,NNE,27,0.0,1.0,84,0.00,,,0.24,Wunderground v.1.15,2013-07-17 03:35:00,
2013-07-16 23:40:00,77.2,72.0,30.14,NNE,27,0.0,1.0,84,0.00,,,0.24,Wunderground v.1.15,2013-07-17 03:40:00,
2013-07-16 23:45:00,77.2,72.0,30.14,NNE,20,0.0,1.0,84,0.00,,,0.24,Wunderground v.1.15,2013-07-17 03:45:00,
2013-07-16 23:50:00,77.4,72.5,30.14,North,5,3.0,3.0,85,0.00,,,0.24,Wunderground v.1.15,2013-07-17 03:50:00,
2013-07-16 23:55:00,77.5,72.3,30.14,North,350,1.0,3.0,84,0.00,,,0.24,Wunderground v.1.15,2013-07-17 03:55:00,